Latest Weather Observations for Temora

IDN60801

Issued at 6:12 am EDT Monday 19 November 2018 (issued every 10 minutes, with the page automatically refreshed every 10 minutes)

About weather observations | Map of weather stations | Latest weather observations for NSW | Other Formats
Station Details ID: 073151 Name: TEMORA AIRPORT Lat: -34.43 Lon: 147.51 Height: 280.5 m
Data from the previous 72 hours. | See also: Recent months at Temora
Date/Time
EDT
Temp
°C
App
Temp
°C
Dew
Point
°C
Rel
Hum
%
Delta-T
°C
Wind Press
QNH
hPa
Press
MSL
hPa
Rain since
9am
mm
Dir  Spd
km/h
Gust
km/h
Spd
kts
Gust
kts
19/06:00am 14.9 11.0 8.6 66 3.2 ENE 19 26 10 14 1020.0 1019.0 0.0
19/05:30am 15.0 11.1 8.7 66 3.2 ENE 19 26 10 14 1019.8 1018.8 0.0
19/05:00am 15.1 10.9 8.3 64 3.5 E 20 28 11 15 1019.3 1018.3 0.0
19/04:30am 15.1 10.6 8.6 65 3.3 E 22 32 12 17 1019.3 1018.3 0.0
19/04:00am 15.0 10.9 8.5 65 3.3 E 20 30 11 16 1019.4 1018.4 0.0
19/03:30am 15.1 11.0 8.6 65 3.3 E 20 30 11 16 1019.3 1018.3 0.0
19/03:00am 15.4 10.9 8.4 63 3.6 E 22 30 12 16 1019.2 1018.2 0.0
19/02:30am 15.7 10.4 8.4 62 3.8 E 26 35 14 19 1019.2 1018.2 0.0
19/02:00am 16.0 11.5 8.5 61 3.9 E 22 37 12 20 1019.5 1018.5 0.0
19/01:30am 16.3 11.4 8.3 59 4.1 ENE 24 37 13 20 1019.8 1018.8 0.0
19/01:00am 16.7 11.8 8.4 58 4.3 ENE 24 37 13 20 1019.8 1018.8 0.0
19/12:30am 17.0 10.6 8.4 57 4.5 E 32 43 17 23 1019.5 1018.5 0.0
19/12:00am 17.4 11.7 8.3 55 4.7 E 28 41 15 22 1019.6 1018.6 0.0
 
Date/Time
EDT
Temp
°C
App
Temp
°C
Dew
Point
°C
Rel
Hum
%
Delta-T
°C
Wind Press
QNH
hPa
Press
MSL
hPa
Rain since
9am
mm
Dir  Spd
km/h
Gust
km/h
Spd
kts
Gust
kts
18/11:30pm 17.8 11.7 8.4 54 4.9 E 30 46 16 25 1019.5 1018.5 0.0
18/11:00pm 18.2 11.8 8.5 53 5.1 E 32 48 17 26 1019.2 1018.2 0.0
18/10:30pm 18.7 11.7 8.4 51 5.4 E 35 56 19 30 1019.1 1018.1 0.0
18/10:19pm 19.1 12.7 8.4 50 5.6 E 32 52 17 28 1018.9 1017.9 0.0
18/10:00pm 19.6 12.6 8.6 49 5.8 E 35 52 19 28 1018.7 1017.7 0.0
18/09:30pm 21.1 14.3 7.7 42 7.0 E 33 52 18 28 1018.2 1017.3 0.0
18/09:26pm 21.2 14.4 7.8 42 7.0 ESE 33 52 18 28 1018.2 1017.3 0.0
18/09:00pm 23.0 16.8 6.3 34 8.6 E 28 43 15 23 1017.8 1016.9 0.0
18/08:54pm 23.7 18.6 6.0 32 9.1 E 22 39 12 21 1017.7 1016.8 0.0
18/08:30pm 24.5 21.3 5.3 29 9.8 E 11 17 6 9 1017.4 1016.5 0.0
18/08:00pm 24.9 22.1 5.2 28 10.1 ESE 9 13 5 7 1017.3 1016.4 0.0
18/07:30pm 25.9 22.3 4.9 26 10.8 ENE 13 17 7 9 1017.3 1016.4 0.0
18/07:00pm 26.3 22.3 4.7 25 11.1 NE 15 20 8 11 1017.0 1016.1 0.0
18/06:30pm 27.3 23.6 4.4 23 11.8 N 13 22 7 12 1016.8 1015.8 0.0
18/06:00pm 26.4 22.9 3.6 23 11.5 E 11 17 6 9 1016.9 1015.9 0.0
18/05:30pm 27.1 22.4 2.9 21 12.1 NE 17 28 9 15 1016.8 1015.8 0.0
18/05:00pm 26.9 24.0 2.7 21 12.0 SE 7 11 4 6 1016.9 1015.9 0.0
18/04:30pm 27.4 24.0 3.8 22 12.0 N 11 24 6 13 1017.2 1016.3 0.0
18/04:00pm 26.4 22.3 2.3 21 11.8 ENE 13 24 7 13 1017.5 1016.6 0.0
18/03:30pm 26.7 23.5 3.2 22 11.8 SSE 9 15 5 8 1017.9 1017.0 0.0
18/03:00pm 26.2 22.4 1.5 20 11.9 E 11 22 6 12 1018.7 1017.7 0.0
18/02:30pm 25.9 21.4 -0.2 18 12.2 N 13 20 7 11 1019.0 1018.0 0.0
18/02:00pm 25.1 21.0 2.5 23 11.0 ESE 13 20 7 11 1019.4 1018.4 0.0
18/01:30pm 25.2 21.6 4.9 27 10.4 ENE 13 24 7 13 1019.9 1018.9 0.0
18/01:00pm 24.9 21.2 4.6 27 10.3 ENE 13 20 7 11 1020.4 1019.5 0.0
18/12:30pm 23.6 19.9 4.5 29 9.6 E 13 20 7 11 1020.8 1019.9 0.0
18/12:00pm 24.2 20.1 6.0 31 9.4 E 17 26 9 14 1021.2 1020.3 0.0
18/11:30am 22.7 17.9 5.6 33 8.7 NE 20 32 11 17 1021.6 1020.7 0.0
18/11:00am 23.0 19.2 7.5 37 8.2 E 17 26 9 14 1021.8 1020.9 0.0
18/10:30am 21.4 16.2 7.3 40 7.4 ENE 24 35 13 19 1022.1 1021.2 0.0
18/10:00am 20.1 14.2 7.5 44 6.5 ENE 28 37 15 20 1022.3 1021.3 0.0
18/09:30am 19.8 13.8 7.2 44 6.5 ENE 28 41 15 22 1022.3 1021.3 0.0
18/09:00am 18.8 12.2 7.6 48 5.8 E 32 43 17 23 1022.4 1021.4 0.0
18/08:30am 17.9 11.3 7.6 51 5.3 E 32 44 17 24 1022.4 1021.4 0.0
18/08:00am 17.1 11.6 7.7 54 4.8 E 26 37 14 20 1022.4 1021.4 0.0
18/07:30am 16.2 11.2 7.9 58 4.2 E 24 37 13 20 1022.3 1021.3 0.0
18/07:00am 15.3 11.3 8.3 63 3.6 E 19 32 10 17 1021.9 1021.0 0.0
18/06:30am 14.6 10.6 8.3 66 3.2 E 19 28 10 15 1021.7 1020.8 0.0
18/06:00am 14.5 9.3 8.7 68 3.0 E 26 37 14 20 1021.4 1020.5 0.0
18/05:30am 14.7 10.2 8.6 67 3.1 E 22 32 12 17 1021.2 1020.3 0.0
18/05:00am 14.7 10.8 8.6 67 3.1 ENE 19 28 10 15 1021.1 1020.2 0.0
18/04:30am 14.8 10.9 8.5 66 3.2 E 19 32 10 17 1020.9 1020.0 0.0
18/04:00am 15.1 10.2 8.3 64 3.5 E 24 37 13 20 1020.7 1019.8 0.0
18/03:30am 15.3 10.2 7.8 61 3.8 E 24 41 13 22 1020.5 1019.6 0.0
18/03:00am 15.5 10.1 7.8 60 3.9 E 26 39 14 21 1020.5 1019.6 0.0
18/02:30am 15.7 10.3 8.0 60 3.9 E 26 39 14 21 1020.7 1019.8 0.0
18/02:00am 15.8 10.9 8.5 62 3.8 E 24 35 13 19 1020.8 1019.9 0.0
18/01:30am 16.1 11.2 8.6 61 3.9 E 24 35 13 19 1020.9 1020.0 0.0
18/01:00am 16.5 10.8 8.5 59 4.1 E 28 44 15 24 1020.8 1019.9 0.0
18/12:30am 16.9 10.8 8.3 57 4.4 E 30 44 16 24 1020.7 1019.8 0.0
18/12:01am 17.3 10.8 8.2 55 4.7 E 32 50 17 27 1020.5 1019.6 0.0
18/12:00am 17.3 11.2 8.2 55 4.7 E 30 44 16 24 1020.5 1019.6 0.0
 
Date/Time
EDT
Temp
°C
App
Temp
°C
Dew
Point
°C
Rel
Hum
%
Delta-T
°C
Wind Press
QNH
hPa
Press
MSL
hPa
Rain since
9am
mm
Dir  Spd
km/h
Gust
km/h
Spd
kts
Gust
kts
17/11:30pm 17.8 12.5 8.4 54 4.9 E 26 37 14 20 1020.3 1019.4 0.0
17/11:02pm 18.5 12.8 8.5 52 5.2 E 28 46 15 25 1020.2 1019.3 0.0
17/11:00pm 18.6 12.5 8.3 51 5.4 E 30 46 16 25 1020.1 1019.2 0.0
17/10:30pm 19.4 13.4 8.7 50 5.7 E 30 48 16 26 1020.0 1019.0 0.0
17/10:27pm 19.3 13.7 8.6 50 5.6 E 28 46 15 25 1019.9 1018.9 0.0
17/10:00pm 19.9 14.3 8.6 48 6.0 E 28 41 15 22 1019.6 1018.6 0.0
17/09:32pm 20.6 15.0 8.6 46 6.4 E 28 48 15 26 1019.3 1018.3 0.0
17/09:30pm 20.6 15.0 8.6 46 6.4 E 28 37 15 20 1019.3 1018.3 0.0
17/09:00pm 21.4 15.4 8.7 44 6.8 E 30 41 16 22 1018.7 1017.7 0.0
17/08:30pm 22.3 16.2 8.1 40 7.6 E 30 44 16 24 1018.2 1017.3 0.0
17/08:00pm 23.1 16.8 7.6 37 8.2 ESE 30 44 16 24 1017.8 1016.9 0.0
17/07:30pm 24.9 20.2 6.1 30 9.8 ESE 20 30 11 16 1017.2 1016.3 0.0
17/07:00pm 25.8 21.0 5.4 27 10.5 ESE 20 28 11 15 1016.9 1015.9 0.0
17/06:30pm 26.3 21.4 5.3 26 10.9 ESE 20 32 11 17 1016.6 1015.6 0.0
17/06:00pm 26.8 21.5 5.1 25 11.2 ESE 22 30 12 16 1016.4 1015.4 0.0
17/05:30pm 26.5 22.1 4.9 25 11.1 SE 17 26 9 14 1016.3 1015.3 0.0
17/05:00pm 26.6 22.2 5.0 25 11.1 ESE 17 28 9 15 1016.3 1015.3 0.0
17/04:30pm 26.5 22.7 3.7 23 11.5 ESE 13 19 7 10 1016.1 1015.1 0.0
17/04:00pm 26.5 23.2 4.3 24 11.3 ESE 11 19 6 10 1016.2 1015.2 0.0
17/03:30pm 27.5 23.1 4.5 23 11.8 SE 17 30 9 16 1016.4 1015.4 0.0
17/03:00pm 25.9 22.6 4.4 25 10.9 SE 11 19 6 10 1016.7 1015.7 0.0
17/02:30pm 25.9 21.7 3.8 24 11.1 SE 15 24 8 13 1017.1 1016.2 0.0
17/02:00pm 26.7 22.4 5.1 25 11.2 SE 17 32 9 17 1017.4 1016.5 0.0
17/01:30pm 26.1 22.1 5.1 26 10.8 SE 15 24 8 13 1017.5 1016.6 0.0
17/01:00pm 24.9 22.0 4.6 27 10.3 SE 9 17 5 9 1017.7 1016.8 0.0
17/12:30pm 25.8 23.1 5.4 27 10.6 N 9 15 5 8 1018.1 1017.2 0.0
17/12:00pm 25.7 22.2 5.3 27 10.5 NNE 13 20 7 11 1018.4 1017.5 0.0
17/11:30am 24.5 22.4 6.7 32 9.4 ESE 7 17 4 9 1018.7 1017.7 0.0
17/11:00am 24.6 21.1 7.3 33 9.2 E 15 26 8 14 1018.8 1017.8 0.0
17/10:30am 23.5 20.8 9.1 40 7.9 ENE 13 19 7 10 1019.0 1018.0 0.0
17/10:00am 22.7 20.3 10.2 45 6.9 E 13 20 7 11 1018.8 1017.8 0.0
17/09:30am 21.5 18.0 10.3 49 6.2 E 19 26 10 14 1018.9 1017.9 0.0
17/09:00am 20.4 17.1 10.8 54 5.3 E 19 24 10 13 1018.9 1017.9 0.0
17/08:30am 19.3 15.9 11.1 59 4.5 E 20 30 11 16 1018.7 1017.7 0.0
17/08:00am 18.2 15.8 11.3 64 3.8 ESE 15 20 8 11 1018.7 1017.7 0.0
17/07:30am 16.8 14.4 11.3 70 3.0 E 15 20 8 11 1018.3 1017.4 0.0
17/07:00am 15.4 14.1 11.4 77 2.2 ESE 9 15 5 8 1018.0 1017.1 0.0
17/06:30am 14.0 13.8 10.6 80 1.8 ESE 2 7 1 4 1017.7 1016.8 0.0
17/06:00am 13.5 11.7 10.9 84 1.4 E 11 13 6 7 1017.3 1016.4 0.0
17/05:30am 9.5 8.5 5.5 76 1.8 CALM 0 0 0 0 1017.1 1016.2 0.0
17/05:00am 12.5 10.4 8.4 76 2.1 E 9 11 5 6 1016.8 1015.8 0.0
17/04:30am 11.5 9.2 4.9 64 3.1 SE 6 9 3 5 1016.6 1015.6 0.0
17/04:00am 12.7 10.1 4.2 56 3.9 S 7 9 4 5 1016.4 1015.4 0.0
17/03:30am 12.0 9.1 4.5 60 3.5 SSW 9 11 5 6 1016.3 1015.3 0.0
17/03:00am 13.9 10.7 5.0 55 4.2 SSE 11 13 6 7 1016.3 1015.3 0.0
17/02:30am 12.7 10.0 5.6 62 3.4 S 9 11 5 6 1016.4 1015.4 0.0
17/02:00am 12.5 10.1 6.8 68 2.8 SSE 9 11 5 6 1016.6 1015.6 0.0
17/01:30am 12.7 9.9 5.1 60 3.6 SSW 9 11 5 6 1016.9 1015.9 0.0
17/01:00am 12.9 10.2 5.6 61 3.5 SSW 9 9 5 5 1017.0 1016.1 0.0
17/12:30am 12.8 10.0 5.0 59 3.7 SSW 9 9 5 5 1017.3 1016.4 0.0
17/12:00am 14.1 11.6 4.7 53 4.4 S 7 7 4 4 1017.4 1016.5 0.0
 
Date/Time
EDT
Temp
°C
App
Temp
°C
Dew
Point
°C
Rel
Hum
%
Delta-T
°C
Wind Press
QNH
hPa
Press
MSL
hPa
Rain since
9am
mm
Dir  Spd
km/h
Gust
km/h
Spd
kts
Gust
kts
16/11:30pm 16.2 13.5 3.9 44 5.8 SSE 7 9 4 5 1017.5 1016.6 0.0
16/11:00pm 16.8 14.1 3.5 41 6.2 S 7 9 4 5 1017.6 1016.7 0.0
16/10:30pm 17.6 15.0 3.1 38 6.8 S 6 7 3 4 1017.6 1016.7 0.0
16/10:00pm 17.9 14.8 1.4 33 7.5 SSW 7 11 4 6 1017.5 1016.6 0.0
16/09:30pm 19.1 15.3 2.0 32 7.9 SSW 11 13 6 7 1017.0 1016.1 0.0
16/09:00pm 20.1 16.6 1.5 29 8.6 SW 9 13 5 7 1016.7 1015.7 0.0
16/08:30pm 20.9 17.4 1.2 27 9.1 SW 9 11 5 6 1016.5 1015.5 0.0
16/08:00pm 21.9 17.9 0.4 24 9.9 SW 11 15 6 8 1016.2 1015.2 0.0
16/07:30pm 24.1 19.6 -0.2 20 11.2 SW 13 20 7 11 1016.0 1015.0 0.0
16/07:00pm 25.4 20.5 -0.6 18 12.0 SW 15 26 8 14 1015.8 1014.8 0.0
16/06:30pm 26.6 21.1 -2.1 15 13.0 SW 17 24 9 13 1015.6 1014.6 0.0
16/06:00pm 26.9 21.2 -1.0 16 13.0 WSW 19 28 10 15 1015.4 1014.4 0.0
16/05:30pm 27.0 21.7 -0.9 16 13.0 WSW 17 28 9 15 1015.5 1014.5 0.0
16/05:00pm 27.5 22.7 -2.3 14 13.6 W 13 24 7 13 1015.7 1014.7 0.0
16/04:30pm 27.1 21.5 -2.7 14 13.5 WSW 17 30 9 16 1015.9 1014.9 0.0
16/04:00pm 27.0 21.7 -0.9 16 13.0 WSW 17 28 9 15 1016.0 1015.0 0.0
16/03:30pm 27.5 22.2 -0.5 16 13.2 WSW 17 26 9 14 1016.3 1015.3 0.0
16/03:00pm 27.4 22.0 1.0 18 12.7 W 19 28 10 15 1016.7 1015.7 0.0
16/02:30pm 26.5 22.3 1.7 20 12.1 SW 13 19 7 10 1017.1 1016.2 0.0
16/02:00pm 26.3 22.9 1.6 20 12.0 WNW 9 19 5 10 1017.3 1016.4 0.0
16/01:30pm 25.0 21.7 4.7 27 10.3 SSW 11 20 6 11 1018.0 1017.1 0.0
16/01:00pm 24.6 21.6 5.9 30 9.7 NNE 11 20 6 11 1018.3 1017.4 0.0
16/12:30pm 24.0 21.4 6.3 32 9.2 NNE 9 19 5 10 1018.9 1017.9 0.0
16/12:00pm 23.1 20.8 7.6 37 8.2 NE 9 15 5 8 1019.4 1018.4 0.0
16/11:30am 21.9 20.2 9.8 46 6.6 ESE 9 17 5 9 1019.7 1018.7 0.0
16/11:00am 21.6 19.5 9.8 47 6.4 NNW 11 17 6 9 1019.9 1018.9 0.0
16/10:30am 21.3 18.9 10.2 49 6.1 NE 13 20 7 11 1020.0 1019.0 0.0
16/10:00am 20.3 17.5 10.1 52 5.6 ENE 15 26 8 14 1020.2 1019.3 0.0
16/09:30am 19.4 15.6 9.0 51 5.5 ENE 19 26 10 14 1020.4 1019.5 0.0
16/09:00am 18.6 14.6 9.1 54 5.0 ENE 20 30 11 16 1020.4 1019.5 0.0
16/08:30am 17.3 12.5 8.7 57 4.5 E 24 32 13 17 1020.5 1019.6 0.0
16/08:00am 16.4 12.3 8.6 60 4.0 E 20 30 11 16 1020.4 1019.5 0.0
16/07:30am 14.9 10.7 8.2 64 3.4 E 20 28 11 15 1020.3 1019.4 0.0
16/07:00am 14.0 10.7 8.0 67 3.0 E 15 22 8 12 1020.2 1019.3 0.0
16/06:30am 13.3 10.0 8.0 70 2.7 E 15 24 8 13 1020.3 1019.4 0.0

Other Formats:

Comma delimited format used in spreadsheet applications
http://www.bom.gov.au/fwo/IDN60801/IDN60801.95722.axf

JavaScript Object Notation format (JSON) in row-major order
http://www.bom.gov.au/fwo/IDN60801/IDN60801.95722.json